sensor_id;sensor_type;location;lat;lon;timestamp;pressure;altitude;pressure_sealevel;temperature;humidity
63306;BME280;50735;52.060;1.248;2023-03-19T00:00:44;100615.98;;;7.41;63.75
63306;BME280;50735;52.060;1.248;2023-03-19T00:03:16;100618.96;;;7.48;64.29
63306;BME280;50735;52.060;1.248;2023-03-19T00:05:50;100622.18;;;7.74;63.96
63306;BME280;50735;52.060;1.248;2023-03-19T00:08:22;100621.81;;;7.89;63.58
63306;BME280;50735;52.060;1.248;2023-03-19T00:10:54;100623.60;;;7.94;63.38
63306;BME280;50735;52.060;1.248;2023-03-19T00:13:26;100625.03;;;7.83;63.82
63306;BME280;50735;52.060;1.248;2023-03-19T00:15:58;100626.18;;;7.85;63.66
63306;BME280;50735;52.060;1.248;2023-03-19T00:18:30;100625.78;;;7.76;63.88
63306;BME280;50735;52.060;1.248;2023-03-19T00:21:02;100627.61;;;7.96;63.33
63306;BME280;50735;52.060;1.248;2023-03-19T00:23:35;100628.66;;;8.04;63.39
63306;BME280;50735;52.060;1.248;2023-03-19T00:26:07;100633.89;;;8.24;62.88
63306;BME280;50735;52.060;1.248;2023-03-19T00:28:38;100637.15;;;8.13;63.18
63306;BME280;50735;52.060;1.248;2023-03-19T00:31:13;100640.66;;;8.27;63.00
63306;BME280;50735;52.060;1.248;2023-03-19T00:33:45;100646.99;;;8.00;63.09
63306;BME280;50735;52.060;1.248;2023-03-19T00:36:17;100645.81;;;8.24;62.97
63306;BME280;50735;52.060;1.248;2023-03-19T00:38:50;100643.57;;;8.27;62.84
63306;BME280;50735;52.060;1.248;2023-03-19T00:41:22;100648.98;;;8.23;63.13
63306;BME280;50735;52.060;1.248;2023-03-19T00:43:55;100647.27;;;8.00;63.02
63306;BME280;50735;52.060;1.248;2023-03-19T00:46:27;100647.64;;;8.24;62.94
63306;BME280;50735;52.060;1.248;2023-03-19T00:48:59;100654.24;;;8.35;62.71
63306;BME280;50735;52.060;1.248;2023-03-19T00:51:31;100656.29;;;8.33;62.80
63306;BME280;50735;52.060;1.248;2023-03-19T00:54:03;100657.68;;;7.95;63.30
63306;BME280;50735;52.060;1.248;2023-03-19T00:56:35;100659.69;;;8.01;63.34
63306;BME280;50735;52.060;1.248;2023-03-19T00:59:07;100663.04;;;8.09;63.29
63306;BME280;50735;52.060;1.248;2023-03-19T01:01:39;100662.61;;;7.89;63.45
63306;BME280;50735;52.060;1.248;2023-03-19T01:04:11;100663.98;;;8.02;63.68
63306;BME280;50735;52.060;1.248;2023-03-19T01:06:43;100662.09;;;7.85;63.63
63306;BME280;50735;52.060;1.248;2023-03-19T01:09:15;100660.43;;;7.99;63.74
63306;BME280;50735;52.060;1.248;2023-03-19T01:11:48;100660.27;;;7.72;64.24
63306;BME280;50735;52.060;1.248;2023-03-19T01:14:20;100665.54;;;7.83;63.84
63306;BME280;50735;52.060;1.248;2023-03-19T01:16:51;100666.22;;;7.99;63.91
63306;BME280;50735;52.060;1.248;2023-03-19T01:19:23;100667.70;;;8.00;64.11
63306;BME280;50735;52.060;1.248;2023-03-19T01:21:56;100668.42;;;7.88;64.24
63306;BME280;50735;52.060;1.248;2023-03-19T01:24:28;100668.85;;;7.89;64.25
63306;BME280;50735;52.060;1.248;2023-03-19T01:27:00;100668.72;;;8.08;63.89
63306;BME280;50735;52.060;1.248;2023-03-19T01:29:32;100670.33;;;8.12;63.82
63306;BME280;50735;52.060;1.248;2023-03-19T01:32:04;100674.00;;;7.95;64.24
63306;BME280;50735;52.060;1.248;2023-03-19T01:34:36;100676.74;;;8.00;64.32
63306;BME280;50735;52.060;1.248;2023-03-19T01:37:08;100680.54;;;8.07;64.03
63306;BME280;50735;52.060;1.248;2023-03-19T01:39:40;100680.34;;;8.19;63.66
63306;BME280;50735;52.060;1.248;2023-03-19T01:42:12;100686.06;;;8.30;63.22
63306;BME280;50735;52.060;1.248;2023-03-19T01:44:44;100686.12;;;8.12;63.40
63306;BME280;50735;52.060;1.248;2023-03-19T01:47:18;100686.60;;;8.26;63.54
63306;BME280;50735;52.060;1.248;2023-03-19T01:49:57;100685.25;;;8.04;63.62
63306;BME280;50735;52.060;1.248;2023-03-19T01:52:33;100688.97;;;8.13;63.97
63306;BME280;50735;52.060;1.248;2023-03-19T01:55:06;100689.36;;;7.96;64.55
63306;BME280;50735;52.060;1.248;2023-03-19T01:57:38;100690.76;;;7.47;64.90
63306;BME280;50735;52.060;1.248;2023-03-19T02:00:11;100690.68;;;7.94;64.66
63306;BME280;50735;52.060;1.248;2023-03-19T02:02:45;100689.90;;;7.87;64.78
63306;BME280;50735;52.060;1.248;2023-03-19T02:05:18;100689.45;;;7.88;64.39
63306;BME280;50735;52.060;1.248;2023-03-19T02:07:52;100690.49;;;8.06;64.43
63306;BME280;50735;52.060;1.248;2023-03-19T02:10:25;100693.76;;;8.02;64.12
63306;BME280;50735;52.060;1.248;2023-03-19T02:12:58;100689.46;;;8.10;63.91
63306;BME280;50735;52.060;1.248;2023-03-19T02:15:31;100689.64;;;8.13;64.36
63306;BME280;50735;52.060;1.248;2023-03-19T02:18:04;100691.33;;;8.26;64.13
63306;BME280;50735;52.060;1.248;2023-03-19T02:20:42;100688.79;;;8.39;63.87
63306;BME280;50735;52.060;1.248;2023-03-19T02:23:21;100687.19;;;8.13;63.89
63306;BME280;50735;52.060;1.248;2023-03-19T02:26:02;100680.97;;;8.32;63.76
63306;BME280;50735;52.060;1.248;2023-03-19T02:28:37;100679.42;;;8.42;63.50
63306;BME280;50735;52.060;1.248;2023-03-19T02:31:12;100679.40;;;8.29;63.53
63306;BME280;50735;52.060;1.248;2023-03-19T02:33:54;100683.12;;;8.26;64.29
63306;BME280;50735;52.060;1.248;2023-03-19T02:36:31;100682.28;;;8.42;63.82
63306;BME280;50735;52.060;1.248;2023-03-19T02:39:07;100680.28;;;8.35;63.91
63306;BME280;50735;52.060;1.248;2023-03-19T02:41:44;100682.44;;;8.36;63.90
63306;BME280;50735;52.060;1.248;2023-03-19T02:44:17;100682.79;;;8.21;64.41
63306;BME280;50735;52.060;1.248;2023-03-19T02:46:49;100685.80;;;8.03;64.42
63306;BME280;50735;52.060;1.248;2023-03-19T02:49:21;100682.71;;;8.39;63.89
63306;BME280;50735;52.060;1.248;2023-03-19T02:51:53;100676.63;;;8.48;63.71
63306;BME280;50735;52.060;1.248;2023-03-19T02:54:25;100679.26;;;7.98;64.53
63306;BME280;50735;52.060;1.248;2023-03-19T02:56:57;100682.71;;;7.90;65.08
63306;BME280;50735;52.060;1.248;2023-03-19T02:59:29;100688.43;;;7.41;66.81
63306;BME280;50735;52.060;1.248;2023-03-19T03:02:01;100689.27;;;7.22;66.37
63306;BME280;50735;52.060;1.248;2023-03-19T03:04:33;100691.08;;;7.52;65.09
63306;BME280;50735;52.060;1.248;2023-03-19T03:07:06;100692.29;;;7.54;64.50
63306;BME280;50735;52.060;1.248;2023-03-19T03:09:38;100694.46;;;7.59;63.61
63306;BME280;50735;52.060;1.248;2023-03-19T03:12:10;100701.61;;;7.74;63.42
63306;BME280;50735;52.060;1.248;2023-03-19T03:14:42;100700.74;;;7.38;63.06
63306;BME280;50735;52.060;1.248;2023-03-19T03:17:14;100705.06;;;7.49;62.55
63306;BME280;50735;52.060;1.248;2023-03-19T03:19:45;100713.35;;;7.11;62.42
63306;BME280;50735;52.060;1.248;2023-03-19T03:22:18;100714.90;;;7.14;61.85
63306;BME280;50735;52.060;1.248;2023-03-19T03:24:49;100720.72;;;7.33;61.94
63306;BME280;50735;52.060;1.248;2023-03-19T03:27:21;100722.02;;;7.40;61.63
63306;BME280;50735;52.060;1.248;2023-03-19T03:29:53;100720.83;;;7.69;61.46
63306;BME280;50735;52.060;1.248;2023-03-19T03:32:25;100727.77;;;7.32;61.49
63306;BME280;50735;52.060;1.248;2023-03-19T03:34:57;100733.35;;;7.62;61.40
63306;BME280;50735;52.060;1.248;2023-03-19T03:37:29;100740.97;;;6.97;61.87
63306;BME280;50735;52.060;1.248;2023-03-19T03:40:01;100747.85;;;6.96;61.84
63306;BME280;50735;52.060;1.248;2023-03-19T03:42:33;100751.19;;;6.62;61.96
63306;BME280;50735;52.060;1.248;2023-03-19T03:45:06;100752.18;;;6.69;61.97
63306;BME280;50735;52.060;1.248;2023-03-19T03:47:38;100753.33;;;6.52;62.03
63306;BME280;50735;52.060;1.248;2023-03-19T03:50:10;100754.25;;;6.50;61.80
63306;BME280;50735;52.060;1.248;2023-03-19T03:52:42;100756.51;;;6.61;61.71
63306;BME280;50735;52.060;1.248;2023-03-19T03:55:14;100756.10;;;6.55;61.74
63306;BME280;50735;52.060;1.248;2023-03-19T03:57:45;100756.94;;;6.56;61.55
63306;BME280;50735;52.060;1.248;2023-03-19T04:00:18;100765.16;;;6.68;61.22
63306;BME280;50735;52.060;1.248;2023-03-19T04:02:50;100771.27;;;6.62;61.42
63306;BME280;50735;52.060;1.248;2023-03-19T04:05:22;100773.91;;;6.80;61.52
63306;BME280;50735;52.060;1.248;2023-03-19T04:07:53;100773.42;;;6.80;61.36
63306;BME280;50735;52.060;1.248;2023-03-19T04:10:25;100776.26;;;6.64;61.21
63306;BME280;50735;52.060;1.248;2023-03-19T04:12:57;100781.76;;;6.25;61.98
63306;BME280;50735;52.060;1.248;2023-03-19T04:15:29;100788.73;;;6.21;61.37
63306;BME280;50735;52.060;1.248;2023-03-19T04:18:01;100797.98;;;6.46;61.31
63306;BME280;50735;52.060;1.248;2023-03-19T04:20:34;100803.54;;;6.49;61.22
63306;BME280;50735;52.060;1.248;2023-03-19T04:23:06;100812.68;;;6.05;61.18
63306;BME280;50735;52.060;1.248;2023-03-19T04:25:38;100814.27;;;6.11;61.26
63306;BME280;50735;52.060;1.248;2023-03-19T04:28:10;100818.55;;;6.28;61.37
63306;BME280;50735;52.060;1.248;2023-03-19T04:30:42;100823.50;;;5.93;61.28
63306;BME280;50735;52.060;1.248;2023-03-19T04:33:15;100823.78;;;5.91;61.93
63306;BME280;50735;52.060;1.248;2023-03-19T04:35:47;100824.01;;;5.75;62.09
63306;BME280;50735;52.060;1.248;2023-03-19T04:38:18;100821.20;;;5.81;61.79
63306;BME280;50735;52.060;1.248;2023-03-19T04:40:50;100821.62;;;5.99;61.66
63306;BME280;50735;52.060;1.248;2023-03-19T04:43:23;100829.13;;;5.85;61.56
63306;BME280;50735;52.060;1.248;2023-03-19T04:45:55;100834.52;;;5.93;61.59
63306;BME280;50735;52.060;1.248;2023-03-19T04:48:27;100842.49;;;5.68;61.97
63306;BME280;50735;52.060;1.248;2023-03-19T04:50:59;100848.76;;;5.62;62.27
63306;BME280;50735;52.060;1.248;2023-03-19T04:53:31;100857.47;;;5.71;62.49
63306;BME280;50735;52.060;1.248;2023-03-19T04:56:03;100865.15;;;4.99;63.36
63306;BME280;50735;52.060;1.248;2023-03-19T04:58:35;100866.35;;;5.20;63.07
63306;BME280;50735;52.060;1.248;2023-03-19T05:01:07;100873.61;;;4.77;63.49
63306;BME280;50735;52.060;1.248;2023-03-19T05:03:39;100879.57;;;4.84;63.68
63306;BME280;50735;52.060;1.248;2023-03-19T05:06:11;100875.43;;;4.89;63.91
63306;BME280;50735;52.060;1.248;2023-03-19T05:08:43;100876.71;;;4.97;63.61
63306;BME280;50735;52.060;1.248;2023-03-19T05:11:15;100881.32;;;5.11;63.41
63306;BME280;50735;52.060;1.248;2023-03-19T05:13:47;100879.25;;;5.39;62.72
63306;BME280;50735;52.060;1.248;2023-03-19T05:16:18;100882.18;;;5.35;62.61
63306;BME280;50735;52.060;1.248;2023-03-19T05:18:50;100881.06;;;5.15;62.62
63306;BME280;50735;52.060;1.248;2023-03-19T05:21:22;100882.83;;;5.40;62.28
63306;BME280;50735;52.060;1.248;2023-03-19T05:23:54;100892.45;;;5.38;62.17
63306;BME280;50735;52.060;1.248;2023-03-19T05:26:26;100894.37;;;5.24;62.42
63306;BME280;50735;52.060;1.248;2023-03-19T05:28:58;100898.41;;;5.43;62.12
63306;BME280;50735;52.060;1.248;2023-03-19T05:31:29;100899.04;;;5.36;62.00
63306;BME280;50735;52.060;1.248;2023-03-19T05:34:01;100907.16;;;5.49;62.12
63306;BME280;50735;52.060;1.248;2023-03-19T05:36:33;100908.04;;;5.36;62.32
63306;BME280;50735;52.060;1.248;2023-03-19T05:39:05;100909.74;;;5.30;62.26
63306;BME280;50735;52.060;1.248;2023-03-19T05:41:37;100911.35;;;5.40;62.20
63306;BME280;50735;52.060;1.248;2023-03-19T05:44:09;100910.63;;;5.40;61.97
63306;BME280;50735;52.060;1.248;2023-03-19T05:46:41;100906.92;;;5.36;62.24
63306;BME280;50735;52.060;1.248;2023-03-19T05:49:13;100907.64;;;5.37;62.16
63306;BME280;50735;52.060;1.248;2023-03-19T05:51:46;100909.06;;;5.59;62.04
63306;BME280;50735;52.060;1.248;2023-03-19T05:54:17;100908.89;;;5.54;61.82
63306;BME280;50735;52.060;1.248;2023-03-19T05:56:49;100912.52;;;5.63;61.94
63306;BME280;50735;52.060;1.248;2023-03-19T05:59:21;100915.67;;;5.59;61.64
63306;BME280;50735;52.060;1.248;2023-03-19T06:01:53;100922.25;;;5.64;61.78
63306;BME280;50735;52.060;1.248;2023-03-19T06:04:25;100921.59;;;5.57;61.63
63306;BME280;50735;52.060;1.248;2023-03-19T06:06:57;100927.85;;;5.52;61.56
63306;BME280;50735;52.060;1.248;2023-03-19T06:09:29;100923.75;;;5.49;61.47
63306;BME280;50735;52.060;1.248;2023-03-19T06:12:00;100933.95;;;5.48;61.84
63306;BME280;50735;52.060;1.248;2023-03-19T06:14:32;100937.28;;;5.43;61.73
63306;BME280;50735;52.060;1.248;2023-03-19T06:17:04;100939.27;;;5.51;61.66
63306;BME280;50735;52.060;1.248;2023-03-19T06:19:36;100942.05;;;5.52;61.14
63306;BME280;50735;52.060;1.248;2023-03-19T06:22:08;100940.28;;;5.64;61.58
63306;BME280;50735;52.060;1.248;2023-03-19T06:24:41;100945.84;;;5.71;61.18
63306;BME280;50735;52.060;1.248;2023-03-19T06:27:13;100949.73;;;5.74;61.12
63306;BME280;50735;52.060;1.248;2023-03-19T06:29:45;100956.50;;;5.78;60.59
63306;BME280;50735;52.060;1.248;2023-03-19T06:32:16;100966.41;;;5.79;60.67
63306;BME280;50735;52.060;1.248;2023-03-19T06:34:48;100975.18;;;5.63;60.88
63306;BME280;50735;52.060;1.248;2023-03-19T06:37:20;100985.68;;;5.60;61.12
63306;BME280;50735;52.060;1.248;2023-03-19T06:39:52;100987.80;;;5.64;61.20
63306;BME280;50735;52.060;1.248;2023-03-19T06:42:24;100991.35;;;5.63;61.32
63306;BME280;50735;52.060;1.248;2023-03-19T06:44:56;100991.50;;;5.78;61.32
63306;BME280;50735;52.060;1.248;2023-03-19T06:47:28;100997.25;;;5.84;61.08
63306;BME280;50735;52.060;1.248;2023-03-19T06:50:00;101000.50;;;5.90;61.02
63306;BME280;50735;52.060;1.248;2023-03-19T06:52:32;101007.09;;;5.82;60.99
63306;BME280;50735;52.060;1.248;2023-03-19T06:55:05;101004.23;;;5.94;61.09
63306;BME280;50735;52.060;1.248;2023-03-19T06:57:36;101005.38;;;6.11;61.07
63306;BME280;50735;52.060;1.248;2023-03-19T07:00:09;101008.48;;;6.03;60.89
63306;BME280;50735;52.060;1.248;2023-03-19T07:02:42;101012.14;;;6.19;60.16
63306;BME280;50735;52.060;1.248;2023-03-19T07:05:14;101013.96;;;5.83;60.05
63306;BME280;50735;52.060;1.248;2023-03-19T07:07:45;101018.18;;;5.92;60.02
63306;BME280;50735;52.060;1.248;2023-03-19T07:10:18;101024.00;;;5.97;59.88
63306;BME280;50735;52.060;1.248;2023-03-19T07:12:50;101029.23;;;5.82;59.82
63306;BME280;50735;52.060;1.248;2023-03-19T07:15:22;101034.07;;;5.85;59.38
63306;BME280;50735;52.060;1.248;2023-03-19T07:17:54;101037.11;;;5.84;59.89
63306;BME280;50735;52.060;1.248;2023-03-19T07:20:26;101039.77;;;5.77;59.83
63306;BME280;50735;52.060;1.248;2023-03-19T07:22:58;101041.29;;;5.93;59.63
63306;BME280;50735;52.060;1.248;2023-03-19T07:25:30;101039.45;;;5.97;59.45
63306;BME280;50735;52.060;1.248;2023-03-19T07:28:02;101039.54;;;6.04;59.72
63306;BME280;50735;52.060;1.248;2023-03-19T07:30:33;101044.21;;;6.26;59.61
63306;BME280;50735;52.060;1.248;2023-03-19T07:33:06;101045.51;;;6.44;59.50
63306;BME280;50735;52.060;1.248;2023-03-19T07:35:38;101046.07;;;6.93;58.98
63306;BME280;50735;52.060;1.248;2023-03-19T07:38:10;101045.24;;;6.80;58.85
63306;BME280;50735;52.060;1.248;2023-03-19T07:40:42;101049.27;;;6.93;58.61
63306;BME280;50735;52.060;1.248;2023-03-19T07:43:13;101057.27;;;6.54;57.83
63306;BME280;50735;52.060;1.248;2023-03-19T07:45:45;101061.49;;;6.76;58.40
63306;BME280;50735;52.060;1.248;2023-03-19T07:48:17;101064.36;;;7.07;58.59
63306;BME280;50735;52.060;1.248;2023-03-19T07:50:49;101067.64;;;7.07;58.09
63306;BME280;50735;52.060;1.248;2023-03-19T07:53:21;101074.94;;;6.95;58.20
63306;BME280;50735;52.060;1.248;2023-03-19T07:55:53;101076.03;;;6.93;58.20
63306;BME280;50735;52.060;1.248;2023-03-19T07:58:25;101076.51;;;6.93;58.31
63306;BME280;50735;52.060;1.248;2023-03-19T08:00:57;101074.78;;;7.20;57.49
63306;BME280;50735;52.060;1.248;2023-03-19T08:03:28;101076.99;;;6.77;57.36
63306;BME280;50735;52.060;1.248;2023-03-19T08:06:00;101074.64;;;6.66;57.98
63306;BME280;50735;52.060;1.248;2023-03-19T08:08:32;101075.57;;;7.24;57.94
63306;BME280;50735;52.060;1.248;2023-03-19T08:11:04;101076.65;;;7.26;57.65
63306;BME280;50735;52.060;1.248;2023-03-19T08:13:36;101076.87;;;7.04;57.00
63306;BME280;50735;52.060;1.248;2023-03-19T08:16:08;101079.95;;;7.22;56.73
63306;BME280;50735;52.060;1.248;2023-03-19T08:18:39;101080.08;;;7.57;56.76
63306;BME280;50735;52.060;1.248;2023-03-19T08:21:11;101085.01;;;7.62;56.38
63306;BME280;50735;52.060;1.248;2023-03-19T08:23:43;101093.46;;;7.67;55.89
63306;BME280;50735;52.060;1.248;2023-03-19T08:26:15;101099.02;;;7.65;54.71
63306;BME280;50735;52.060;1.248;2023-03-19T08:28:47;101102.62;;;7.80;55.24
63306;BME280;50735;52.060;1.248;2023-03-19T08:31:18;101108.64;;;8.20;55.67
63306;BME280;50735;52.060;1.248;2023-03-19T08:33:50;101110.11;;;8.39;54.90
63306;BME280;50735;52.060;1.248;2023-03-19T08:36:22;101113.85;;;8.69;54.98
63306;BME280;50735;52.060;1.248;2023-03-19T08:38:54;101124.41;;;8.15;53.06
63306;BME280;50735;52.060;1.248;2023-03-19T08:41:26;101130.41;;;8.12;54.02
63306;BME280;50735;52.060;1.248;2023-03-19T08:43:57;101134.38;;;8.25;54.76
63306;BME280;50735;52.060;1.248;2023-03-19T08:46:29;101141.50;;;8.53;54.74
63306;BME280;50735;52.060;1.248;2023-03-19T08:49:02;101145.88;;;8.85;54.73
63306;BME280;50735;52.060;1.248;2023-03-19T08:51:34;101148.91;;;8.72;53.57
63306;BME280;50735;52.060;1.248;2023-03-19T08:54:06;101148.67;;;8.67;53.33
63306;BME280;50735;52.060;1.248;2023-03-19T08:56:38;101151.39;;;8.88;53.23
63306;BME280;50735;52.060;1.248;2023-03-19T08:59:09;101156.33;;;8.70;54.04
63306;BME280;50735;52.060;1.248;2023-03-19T09:01:41;101162.83;;;9.02;53.36
63306;BME280;50735;52.060;1.248;2023-03-19T09:04:13;101165.10;;;9.27;53.16
63306;BME280;50735;52.060;1.248;2023-03-19T09:06:45;101166.41;;;9.81;52.77
63306;BME280;50735;52.060;1.248;2023-03-19T09:09:17;101170.65;;;10.00;51.43
63306;BME280;50735;52.060;1.248;2023-03-19T09:11:50;101177.90;;;10.31;50.55
63306;BME280;50735;52.060;1.248;2023-03-19T09:14:21;101181.60;;;10.24;50.02
63306;BME280;50735;52.060;1.248;2023-03-19T09:16:53;101184.24;;;10.40;49.47
63306;BME280;50735;52.060;1.248;2023-03-19T09:19:25;101185.78;;;10.40;49.87
63306;BME280;50735;52.060;1.248;2023-03-19T09:21:57;101193.39;;;10.30;49.45
63306;BME280;50735;52.060;1.248;2023-03-19T09:24:28;101194.72;;;10.07;49.19
63306;BME280;50735;52.060;1.248;2023-03-19T09:27:00;101199.43;;;10.27;49.74
63306;BME280;50735;52.060;1.248;2023-03-19T09:29:32;101204.00;;;10.30;49.30
63306;BME280;50735;52.060;1.248;2023-03-19T09:32:04;101203.91;;;9.98;48.18
63306;BME280;50735;52.060;1.248;2023-03-19T09:34:35;101202.43;;;10.18;48.85
63306;BME280;50735;52.060;1.248;2023-03-19T09:37:07;101199.53;;;10.94;48.41
63306;BME280;50735;52.060;1.248;2023-03-19T09:39:39;101200.59;;;11.83;47.69
63306;BME280;50735;52.060;1.248;2023-03-19T09:42:20;101202.37;;;12.05;46.84
63306;BME280;50735;52.060;1.248;2023-03-19T09:44:58;101206.64;;;11.51;46.03
63306;BME280;50735;52.060;1.248;2023-03-19T09:47:32;101209.98;;;11.44;46.46
63306;BME280;50735;52.060;1.248;2023-03-19T09:50:10;101209.39;;;11.23;46.62
63306;BME280;50735;52.060;1.248;2023-03-19T09:52:45;101210.98;;;11.02;46.83
63306;BME280;50735;52.060;1.248;2023-03-19T09:55:29;101219.40;;;10.55;46.88
63306;BME280;50735;52.060;1.248;2023-03-19T09:58:11;101225.85;;;10.71;48.14
63306;BME280;50735;52.060;1.248;2023-03-19T10:00:46;101226.67;;;10.43;48.55
63306;BME280;50735;52.060;1.248;2023-03-19T10:03:28;101225.49;;;10.53;48.82
63306;BME280;50735;52.060;1.248;2023-03-19T10:06:14;101223.74;;;10.72;48.47
63306;BME280;50735;52.060;1.248;2023-03-19T10:09:03;101220.96;;;11.05;48.30
63306;BME280;50735;52.060;1.248;2023-03-19T10:11:50;101228.68;;;10.95;48.15
63306;BME280;50735;52.060;1.248;2023-03-19T10:14:39;101230.65;;;11.42;47.90
63306;BME280;50735;52.060;1.248;2023-03-19T10:17:18;101232.55;;;11.41;46.63
63306;BME280;50735;52.060;1.248;2023-03-19T10:19:55;101241.59;;;11.61;45.70
63306;BME280;50735;52.060;1.248;2023-03-19T10:22:32;101247.38;;;11.39;46.59
63306;BME280;50735;52.060;1.248;2023-03-19T10:25:10;101257.33;;;10.77;45.83
63306;BME280;50735;52.060;1.248;2023-03-19T10:27:45;101258.25;;;11.25;46.68
63306;BME280;50735;52.060;1.248;2023-03-19T10:30:21;101256.46;;;11.51;45.08
63306;BME280;50735;52.060;1.248;2023-03-19T10:33:06;101253.45;;;11.64;45.58
63306;BME280;50735;52.060;1.248;2023-03-19T10:35:47;101258.01;;;11.34;45.15
63306;BME280;50735;52.060;1.248;2023-03-19T10:38:21;101256.58;;;11.53;45.02
63306;BME280;50735;52.060;1.248;2023-03-19T10:41:03;101259.25;;;11.35;45.76
63306;BME280;50735;52.060;1.248;2023-03-19T10:43:40;101264.80;;;11.17;45.66
63306;BME280;50735;52.060;1.248;2023-03-19T10:46:13;101268.51;;;10.91;46.46
63306;BME280;50735;52.060;1.248;2023-03-19T10:48:45;101275.83;;;10.70;47.00
63306;BME280;50735;52.060;1.248;2023-03-19T10:51:20;101277.78;;;10.44;46.33
63306;BME280;50735;52.060;1.248;2023-03-19T10:53:53;101279.00;;;10.11;47.29
63306;BME280;50735;52.060;1.248;2023-03-19T10:56:27;101280.35;;;10.48;47.88
63306;BME280;50735;52.060;1.248;2023-03-19T10:59:01;101279.57;;;10.36;47.84
63306;BME280;50735;52.060;1.248;2023-03-19T11:01:35;101279.59;;;10.77;48.10
63306;BME280;50735;52.060;1.248;2023-03-19T11:04:12;101278.44;;;10.44;47.08
63306;BME280;50735;52.060;1.248;2023-03-19T11:06:48;101275.69;;;10.53;46.99
63306;BME280;50735;52.060;1.248;2023-03-19T11:09:24;101280.05;;;10.60;47.25
63306;BME280;50735;52.060;1.248;2023-03-19T11:12:06;101286.98;;;10.38;47.81
63306;BME280;50735;52.060;1.248;2023-03-19T11:14:40;101297.31;;;10.82;47.08
63306;BME280;50735;52.060;1.248;2023-03-19T11:17:20;101302.95;;;10.56;46.50
63306;BME280;50735;52.060;1.248;2023-03-19T11:19:54;101304.00;;;10.69;46.20
63306;BME280;50735;52.060;1.248;2023-03-19T11:22:27;101302.58;;;10.62;47.14
63306;BME280;50735;52.060;1.248;2023-03-19T11:25:12;101301.42;;;10.68;46.90
63306;BME280;50735;52.060;1.248;2023-03-19T11:27:57;101303.75;;;10.65;46.86
63306;BME280;50735;52.060;1.248;2023-03-19T11:30:36;101303.41;;;10.72;46.51
63306;BME280;50735;52.060;1.248;2023-03-19T11:33:30;101302.17;;;10.89;46.64
63306;BME280;50735;52.060;1.248;2023-03-19T11:36:11;101306.50;;;11.21;45.98
63306;BME280;50735;52.060;1.248;2023-03-19T11:38:53;101305.33;;;11.05;45.54
63306;BME280;50735;52.060;1.248;2023-03-19T11:41:35;101306.77;;;11.03;45.91
63306;BME280;50735;52.060;1.248;2023-03-19T11:44:15;101306.80;;;11.34;45.00
63306;BME280;50735;52.060;1.248;2023-03-19T11:46:54;101311.02;;;10.34;45.67
63306;BME280;50735;52.060;1.248;2023-03-19T11:49:41;101315.17;;;9.99;46.88
63306;BME280;50735;52.060;1.248;2023-03-19T11:52:21;101321.83;;;10.59;47.28
63306;BME280;50735;52.060;1.248;2023-03-19T11:55:07;101320.14;;;10.44;46.68
63306;BME280;50735;52.060;1.248;2023-03-19T11:57:57;101324.90;;;10.62;45.99
63306;BME280;50735;52.060;1.248;2023-03-19T12:00:35;101329.90;;;10.04;45.61
63306;BME280;50735;52.060;1.248;2023-03-19T12:05:30;101328.50;;;10.00;46.57
63306;BME280;50735;52.060;1.248;2023-03-19T12:08:09;101330.22;;;9.96;46.57
63306;BME280;50735;52.060;1.248;2023-03-19T12:10:53;101332.36;;;9.99;46.82
63306;BME280;50735;52.060;1.248;2023-03-19T12:13:38;101335.58;;;10.25;46.73
63306;BME280;50735;52.060;1.248;2023-03-19T12:16:19;101336.81;;;10.63;46.68
63306;BME280;50735;52.060;1.248;2023-03-19T12:19:06;101339.38;;;10.57;45.47
63306;BME280;50735;52.060;1.248;2023-03-19T12:21:54;101337.63;;;10.05;46.30
63306;BME280;50735;52.060;1.248;2023-03-19T12:24:38;101339.12;;;10.10;45.83
63306;BME280;50735;52.060;1.248;2023-03-19T12:27:22;101344.78;;;10.58;46.32
63306;BME280;50735;52.060;1.248;2023-03-19T12:30:02;101345.43;;;10.59;46.90
63306;BME280;50735;52.060;1.248;2023-03-19T12:32:51;101346.60;;;10.61;46.34
63306;BME280;50735;52.060;1.248;2023-03-19T12:35:33;101348.81;;;10.46;46.31
63306;BME280;50735;52.060;1.248;2023-03-19T12:38:10;101350.59;;;10.50;46.10
63306;BME280;50735;52.060;1.248;2023-03-19T12:40:48;101352.44;;;10.29;44.89
63306;BME280;50735;52.060;1.248;2023-03-19T12:43:25;101354.85;;;10.38;45.24
63306;BME280;50735;52.060;1.248;2023-03-19T12:46:02;101351.05;;;9.77;45.56
63306;BME280;50735;52.060;1.248;2023-03-19T12:48:41;101345.73;;;10.54;47.28
63306;BME280;50735;52.060;1.248;2023-03-19T12:51:18;101344.55;;;10.84;44.55
63306;BME280;50735;52.060;1.248;2023-03-19T12:53:54;101341.89;;;11.06;45.20
63306;BME280;50735;52.060;1.248;2023-03-19T12:56:31;101343.17;;;11.11;48.22
63306;BME280;50735;52.060;1.248;2023-03-19T12:59:12;101344.51;;;11.19;44.72
63306;BME280;50735;52.060;1.248;2023-03-19T13:01:47;101344.03;;;10.81;43.47
63306;BME280;50735;52.060;1.248;2023-03-19T13:04:22;101349.34;;;11.40;44.70
63306;BME280;50735;52.060;1.248;2023-03-19T13:07:00;101344.12;;;11.98;43.66
63306;BME280;50735;52.060;1.248;2023-03-19T13:09:37;101347.56;;;12.33;42.00
63306;BME280;50735;52.060;1.248;2023-03-19T13:12:15;101341.56;;;12.13;41.87
63306;BME280;50735;52.060;1.248;2023-03-19T13:14:53;101343.12;;;12.25;41.64
63306;BME280;50735;52.060;1.248;2023-03-19T13:17:32;101340.27;;;12.28;41.64
63306;BME280;50735;52.060;1.248;2023-03-19T13:20:17;101348.39;;;11.27;41.83
63306;BME280;50735;52.060;1.248;2023-03-19T13:22:53;101351.28;;;11.12;41.58
63306;BME280;50735;52.060;1.248;2023-03-19T13:25:31;101355.91;;;10.66;42.65
63306;BME280;50735;52.060;1.248;2023-03-19T13:28:08;101349.05;;;10.78;42.78
63306;BME280;50735;52.060;1.248;2023-03-19T13:30:57;101345.11;;;10.85;42.69
63306;BME280;50735;52.060;1.248;2023-03-19T13:33:31;101348.62;;;10.28;42.67
63306;BME280;50735;52.060;1.248;2023-03-19T13:36:06;101353.43;;;10.70;43.11